createdAt,value
2023-04-30T00:02:23.877Z,48.65
2023-04-30T00:04:51.340Z,48.76
2023-04-30T00:07:18.489Z,48.77
2023-04-30T00:09:45.657Z,48.71
2023-04-30T00:12:12.826Z,48.72
2023-04-30T00:14:39.990Z,48.85
2023-04-30T00:17:07.259Z,48.64
2023-04-30T00:19:34.595Z,48.79
2023-04-30T00:22:01.751Z,48.73
2023-04-30T00:24:29.429Z,48.76
2023-04-30T00:26:56.574Z,48.91
2023-04-30T00:29:23.774Z,49.03
2023-04-30T00:31:51.052Z,48.78
2023-04-30T00:34:18.358Z,48.82
2023-04-30T00:36:45.639Z,49.08
2023-04-30T00:39:12.849Z,49.06
2023-04-30T00:41:40.602Z,48.89
2023-04-30T00:44:08.281Z,49.02
2023-04-30T00:46:35.650Z,49.10
2023-04-30T00:49:04.963Z,49.10
2023-04-30T00:51:33.161Z,49.12
2023-04-30T00:54:03.130Z,49.05
2023-04-30T00:56:31.323Z,49.15
2023-04-30T00:58:59.110Z,49.20
2023-04-30T01:01:28.918Z,49.11
2023-04-30T01:03:56.247Z,48.96
2023-04-30T01:06:23.840Z,49.26
2023-04-30T01:08:51.363Z,49.16
2023-04-30T01:11:40.172Z,49.07
2023-04-30T01:14:25.386Z,49.07
2023-04-30T01:17:06.265Z,49.30
2023-04-30T01:19:43.607Z,49.35
2023-04-30T01:22:28.281Z,49.41
2023-04-30T01:25:16.983Z,49.08
2023-04-30T01:28:06.929Z,49.26
2023-04-30T01:30:35.311Z,49.25
2023-04-30T01:33:03.376Z,49.42
2023-04-30T01:35:57.682Z,49.28
2023-04-30T01:38:46.879Z,49.05
2023-04-30T01:41:34.571Z,49.37
2023-04-30T01:44:25.624Z,49.26
2023-04-30T01:47:05.423Z,49.34
2023-04-30T01:49:48.975Z,49.26
2023-04-30T01:52:22.253Z,49.20
2023-04-30T01:55:00.895Z,49.41
2023-04-30T01:57:38.847Z,49.33
2023-04-30T02:00:10.850Z,49.51
2023-04-30T02:02:38.193Z,49.20
2023-04-30T02:05:05.633Z,49.35
2023-04-30T02:07:41.713Z,49.24
2023-04-30T02:10:09.818Z,49.36
2023-04-30T02:12:37.019Z,49.41
2023-04-30T02:15:06.233Z,49.52
2023-04-30T02:17:34.012Z,49.45
2023-04-30T02:20:01.379Z,49.55
2023-04-30T02:22:28.674Z,49.46
2023-04-30T02:24:57.207Z,49.50
2023-04-30T02:27:26.095Z,49.71
2023-04-30T02:29:53.777Z,49.45
2023-04-30T02:32:21.622Z,49.44
2023-04-30T02:34:48.831Z,49.82
2023-04-30T02:37:16.085Z,49.51
2023-04-30T02:39:43.324Z,49.36
2023-04-30T02:42:11.181Z,49.30
2023-04-30T02:44:38.342Z,49.46
2023-04-30T02:47:05.749Z,49.31
2023-04-30T02:49:32.891Z,49.52
2023-04-30T02:52:00.160Z,49.60
2023-04-30T02:54:27.437Z,49.47
2023-04-30T02:56:54.683Z,49.44
2023-04-30T02:59:21.857Z,49.48
2023-04-30T03:01:49.374Z,49.51
2023-04-30T03:04:16.691Z,49.37
2023-04-30T03:06:43.957Z,49.24
2023-04-30T03:09:11.281Z,49.50
2023-04-30T03:11:38.485Z,49.26
2023-04-30T03:14:05.748Z,49.17
2023-04-30T03:16:33.031Z,49.49
2023-04-30T03:19:00.312Z,49.50
2023-04-30T03:21:27.505Z,49.39
2023-04-30T03:23:54.699Z,49.36
2023-04-30T03:26:22.108Z,49.37
2023-04-30T03:28:49.538Z,49.19
2023-04-30T03:31:16.997Z,49.34
2023-04-30T03:33:44.312Z,49.25
2023-04-30T03:36:11.735Z,49.21
2023-04-30T03:38:38.990Z,49.21
2023-04-30T03:41:06.266Z,49.18
2023-04-30T03:43:33.577Z,49.35
2023-04-30T03:46:00.796Z,49.41
2023-04-30T03:48:28.019Z,49.17
2023-04-30T03:50:55.352Z,49.29
2023-04-30T03:53:22.582Z,49.41
2023-04-30T03:55:50.430Z,49.40
2023-04-30T03:58:17.606Z,49.20
2023-04-30T04:00:45.797Z,49.45
2023-04-30T04:03:13.436Z,49.53
2023-04-30T04:05:41.169Z,49.36
2023-04-30T04:08:08.571Z,49.45
2023-04-30T04:10:36.158Z,49.34
2023-04-30T04:13:03.470Z,49.21
2023-04-30T04:15:30.983Z,49.20
2023-04-30T04:17:58.321Z,49.08
2023-04-30T04:20:25.607Z,49.35
2023-04-30T04:22:53.018Z,49.36
2023-04-30T04:25:20.574Z,49.19
2023-04-30T04:27:47.762Z,49.30
2023-04-30T04:30:15.105Z,49.34
2023-04-30T04:32:46.903Z,49.16
2023-04-30T04:35:15.460Z,49.19
2023-04-30T04:37:42.649Z,49.08
2023-04-30T04:40:13.598Z,49.14
2023-04-30T04:42:40.786Z,49.11
2023-04-30T04:45:08.555Z,49.17
2023-04-30T04:47:36.472Z,49.28
2023-04-30T04:50:03.699Z,49.22
2023-04-30T04:52:30.956Z,49.25
2023-04-30T04:54:58.157Z,49.22
2023-04-30T04:57:27.594Z,49.30
2023-04-30T04:59:55.103Z,49.09
2023-04-30T05:02:23.485Z,49.12
2023-04-30T05:04:51.503Z,49.19
2023-04-30T05:07:18.920Z,49.23
2023-04-30T05:09:48.891Z,49.27
2023-04-30T05:12:16.156Z,49.37
2023-04-30T05:14:43.945Z,49.36
2023-04-30T05:17:11.158Z,49.34
2023-04-30T05:19:38.333Z,49.62
2023-04-30T05:22:05.767Z,49.62
2023-04-30T05:24:32.958Z,49.72
2023-04-30T05:27:00.308Z,49.80
2023-04-30T05:29:27.530Z,49.75
2023-04-30T05:31:54.908Z,49.95
2023-04-30T05:34:22.208Z,49.68
2023-04-30T05:36:49.736Z,49.66
2023-04-30T05:39:17.012Z,49.75
2023-04-30T05:41:44.228Z,49.97
2023-04-30T05:44:11.406Z,49.80
2023-04-30T05:46:38.594Z,49.97
2023-04-30T05:49:05.775Z,50.01
2023-04-30T05:51:33.023Z,50.61
2023-04-30T05:54:00.468Z,51.03
2023-04-30T05:56:27.707Z,50.89
2023-04-30T05:58:54.911Z,50.82
2023-04-30T06:01:23.132Z,50.50
2023-04-30T06:03:50.500Z,50.49
2023-04-30T06:06:17.772Z,50.79
2023-04-30T06:08:45.642Z,50.40
2023-04-30T06:11:13.699Z,50.76
2023-04-30T06:13:41.283Z,50.45
2023-04-30T06:16:08.896Z,50.08
2023-04-30T06:18:36.308Z,49.51
2023-04-30T06:21:03.529Z,48.69
2023-04-30T06:23:30.713Z,48.28
2023-04-30T06:25:58.073Z,47.61
2023-04-30T06:28:25.457Z,46.99
2023-04-30T06:30:54.259Z,46.68
2023-04-30T06:33:21.638Z,46.39
2023-04-30T06:35:50.866Z,46.32
2023-04-30T06:38:18.285Z,46.74
2023-04-30T06:40:45.468Z,46.88
2023-04-30T06:43:12.645Z,46.71
2023-04-30T06:45:40.490Z,46.69
2023-04-30T06:48:08.025Z,46.85
2023-04-30T06:50:35.400Z,46.70
2023-04-30T06:53:02.886Z,46.31
2023-04-30T06:55:30.242Z,46.20
2023-04-30T06:57:57.979Z,46.05
2023-04-30T07:00:25.314Z,45.80
2023-04-30T07:02:52.677Z,45.96
2023-04-30T07:05:19.975Z,46.72
2023-04-30T07:07:47.167Z,46.70
2023-04-30T07:10:14.460Z,46.39
2023-04-30T07:12:41.666Z,45.67
2023-04-30T07:15:09.206Z,45.42
2023-04-30T07:17:37.139Z,45.51
2023-04-30T07:20:05.494Z,45.35
2023-04-30T07:22:32.804Z,45.60
2023-04-30T07:25:00.684Z,46.00
2023-04-30T07:27:28.297Z,46.24
2023-04-30T07:29:56.376Z,45.99
2023-04-30T07:32:26.976Z,46.08
2023-04-30T07:34:54.479Z,45.82
2023-04-30T07:37:21.970Z,45.03
2023-04-30T07:39:49.209Z,44.77
2023-04-30T07:42:16.616Z,45.13
2023-04-30T07:44:43.989Z,45.57
2023-04-30T07:47:11.196Z,45.84
2023-04-30T07:49:38.438Z,46.12
2023-04-30T07:52:06.235Z,46.32
2023-04-30T07:54:36.413Z,46.07
2023-04-30T07:57:03.720Z,46.09
2023-04-30T07:59:31.074Z,46.17
2023-04-30T08:01:58.468Z,46.25
2023-04-30T08:04:25.853Z,46.11
2023-04-30T08:06:53.274Z,46.36
2023-04-30T08:09:20.547Z,46.22
2023-04-30T08:11:47.792Z,46.35
2023-04-30T08:14:14.984Z,46.14
2023-04-30T08:16:42.180Z,46.25
2023-04-30T08:19:09.364Z,46.16
2023-04-30T08:21:36.581Z,45.90
2023-04-30T08:24:03.918Z,45.13
2023-04-30T08:26:31.192Z,45.36
2023-04-30T08:28:58.390Z,45.28
2023-04-30T08:31:25.626Z,45.25
2023-04-30T08:33:52.918Z,45.35
2023-04-30T08:36:20.348Z,45.22
2023-04-30T08:38:47.777Z,45.16
2023-04-30T08:41:19.671Z,45.33
2023-04-30T08:43:49.512Z,45.43
2023-04-30T08:46:17.942Z,45.28
2023-04-30T08:48:45.753Z,45.18
2023-04-30T08:51:12.968Z,45.04
2023-04-30T08:53:41.145Z,45.07
2023-04-30T08:56:11.232Z,40.78
2023-04-30T08:58:38.487Z,39.08
2023-04-30T09:01:09.091Z,37.94
2023-04-30T09:03:36.763Z,37.42
2023-04-30T09:06:04.125Z,37.05
2023-04-30T09:08:44.206Z,36.87
2023-04-30T09:11:22.807Z,38.30
2023-04-30T09:13:54.938Z,38.81
2023-04-30T09:16:23.522Z,38.98
2023-04-30T09:18:53.637Z,39.54
2023-04-30T09:21:34.751Z,38.86
2023-04-30T09:24:04.189Z,39.42
2023-04-30T09:26:36.436Z,39.27
2023-04-30T09:29:07.984Z,38.48
2023-04-30T09:31:36.458Z,38.31
2023-04-30T09:34:04.471Z,38.13
2023-04-30T09:36:31.907Z,38.26
2023-04-30T09:39:15.501Z,38.18
2023-04-30T09:41:43.755Z,37.67
2023-04-30T09:44:28.440Z,37.80
2023-04-30T09:46:57.949Z,37.55
2023-04-30T09:49:26.435Z,37.43
2023-04-30T09:52:01.485Z,37.45
2023-04-30T09:54:32.830Z,37.39
2023-04-30T09:57:02.607Z,38.27
2023-04-30T09:59:32.009Z,38.84
2023-04-30T10:02:03.316Z,39.09
2023-04-30T10:04:36.496Z,39.62
2023-04-30T10:07:17.108Z,39.69
2023-04-30T10:09:51.313Z,40.20
2023-04-30T10:12:40.616Z,40.20
2023-04-30T10:15:14.354Z,40.58
2023-04-30T10:17:44.433Z,40.47
2023-04-30T10:20:13.280Z,40.59
2023-04-30T10:22:41.899Z,40.75
2023-04-30T10:25:13.282Z,40.94
2023-04-30T10:27:40.789Z,40.97
2023-04-30T10:30:12.040Z,40.91
2023-04-30T10:32:58.674Z,40.77
2023-04-30T10:35:35.720Z,40.53
2023-04-30T10:38:23.993Z,40.80
2023-04-30T10:41:00.184Z,40.68
2023-04-30T10:43:30.111Z,38.98
2023-04-30T10:46:00.843Z,39.32
2023-04-30T10:48:30.427Z,40.02
2023-04-30T10:51:00.777Z,40.67
2023-04-30T10:53:31.884Z,40.44
2023-04-30T10:56:08.706Z,38.55
2023-04-30T10:58:40.248Z,39.73
2023-04-30T11:01:13.690Z,40.20
2023-04-30T11:03:43.587Z,40.64
2023-04-30T11:06:15.585Z,41.06
2023-04-30T11:08:46.430Z,40.79
2023-04-30T11:11:20.874Z,40.99
2023-04-30T11:13:53.526Z,41.24
2023-04-30T11:16:20.848Z,40.85
2023-04-30T11:18:48.313Z,39.41
2023-04-30T11:21:15.502Z,39.46
2023-04-30T11:23:44.341Z,40.00
2023-04-30T11:26:11.712Z,39.72
2023-04-30T11:28:39.133Z,39.32
2023-04-30T11:31:06.580Z,39.84
2023-04-30T11:33:35.231Z,40.75
2023-04-30T11:36:03.233Z,41.25
2023-04-30T11:38:34.427Z,41.63
2023-04-30T11:41:02.603Z,41.97
2023-04-30T11:43:31.895Z,42.33
2023-04-30T11:46:29.300Z,42.29
2023-04-30T11:48:58.587Z,42.52
2023-04-30T11:51:26.798Z,42.82
2023-04-30T11:53:54.453Z,42.72
2023-04-30T11:56:25.601Z,43.01
2023-04-30T11:58:55.766Z,42.94
2023-04-30T12:01:26.008Z,43.12
2023-04-30T12:03:55.233Z,43.00
2023-04-30T12:06:27.632Z,43.08
2023-04-30T12:08:56.165Z,43.07
2023-04-30T12:11:27.875Z,43.09
2023-04-30T12:14:11.139Z,43.17
2023-04-30T12:16:49.211Z,43.33
2023-04-30T12:19:17.550Z,43.33
2023-04-30T12:21:47.153Z,43.17
2023-04-30T12:24:15.805Z,43.20
2023-04-30T12:26:43.028Z,43.37
2023-04-30T12:29:12.699Z,43.24
2023-04-30T12:31:42.487Z,43.08
2023-04-30T12:34:11.495Z,43.14
2023-04-30T12:36:42.444Z,43.03
2023-04-30T12:39:10.322Z,43.13
2023-04-30T12:41:41.761Z,43.26
2023-04-30T12:44:16.086Z,43.20
2023-04-30T12:46:43.739Z,43.00
2023-04-30T12:49:11.307Z,43.01
2023-04-30T12:51:41.588Z,43.08
2023-04-30T12:54:08.879Z,43.00
2023-04-30T12:56:35.973Z,42.98
2023-04-30T12:59:03.122Z,42.94
2023-04-30T13:01:30.307Z,42.95
2023-04-30T13:03:57.546Z,42.89
2023-04-30T13:06:29.172Z,42.74
2023-04-30T13:08:58.945Z,42.88
2023-04-30T13:11:27.215Z,42.76
2023-04-30T13:13:55.728Z,42.64
2023-04-30T13:16:24.735Z,42.72
2023-04-30T13:18:52.845Z,42.68
2023-04-30T13:21:21.091Z,42.65
2023-04-30T13:23:52.548Z,42.80
2023-04-30T13:26:21.830Z,42.68
2023-04-30T13:28:50.053Z,42.42
2023-04-30T13:31:17.231Z,42.55
2023-04-30T13:33:44.420Z,42.45
2023-04-30T13:36:11.811Z,42.43
2023-04-30T13:38:39.545Z,42.18
2023-04-30T13:41:06.758Z,42.21
2023-04-30T13:43:33.966Z,42.29
2023-04-30T13:46:01.496Z,42.33
2023-04-30T13:48:28.633Z,42.21
2023-04-30T13:50:55.760Z,42.46
2023-04-30T13:53:22.900Z,41.82
2023-04-30T13:55:50.004Z,42.20
2023-04-30T13:58:17.587Z,42.38
2023-04-30T14:00:44.807Z,42.20
2023-04-30T14:03:12.538Z,41.98
2023-04-30T14:05:40.043Z,42.20
2023-04-30T14:08:07.217Z,42.17
2023-04-30T14:10:34.362Z,42.21
2023-04-30T14:13:01.481Z,42.24
2023-04-30T14:15:30.629Z,42.40
2023-04-30T14:17:58.037Z,42.27
2023-04-30T14:20:25.685Z,42.11
2023-04-30T14:22:52.998Z,42.10
2023-04-30T14:25:20.720Z,42.11
2023-04-30T14:27:48.171Z,42.07
2023-04-30T14:30:15.654Z,42.27
2023-04-30T14:32:43.651Z,41.45
2023-04-30T14:35:11.376Z,40.08
2023-04-30T14:37:38.621Z,40.38
2023-04-30T14:40:07.873Z,39.97
2023-04-30T14:42:35.055Z,37.59
2023-04-30T14:45:02.234Z,35.75
2023-04-30T14:47:29.385Z,34.70
2023-04-30T14:49:58.797Z,34.29
2023-04-30T14:52:26.152Z,33.36
2023-04-30T14:54:53.454Z,33.06
2023-04-30T14:57:20.806Z,33.39
2023-04-30T14:59:48.145Z,32.78
2023-04-30T15:02:15.524Z,32.49
2023-04-30T15:04:46.032Z,32.27
2023-04-30T15:07:13.369Z,32.53
2023-04-30T15:09:40.838Z,32.42
2023-04-30T15:12:08.026Z,32.22
2023-04-30T15:14:35.247Z,32.41
2023-04-30T15:17:02.433Z,32.11
2023-04-30T15:19:29.753Z,31.85
2023-04-30T15:21:56.938Z,32.39
2023-04-30T15:24:24.084Z,32.31
2023-04-30T15:26:52.570Z,32.24
2023-04-30T15:29:19.680Z,32.45
2023-04-30T15:31:47.091Z,32.01
2023-04-30T15:34:14.242Z,32.04
2023-04-30T15:36:41.426Z,31.93
2023-04-30T15:39:08.577Z,31.95
2023-04-30T15:41:35.874Z,32.25
2023-04-30T15:44:02.987Z,32.60
2023-04-30T15:46:30.315Z,32.58
2023-04-30T15:48:57.782Z,32.44
2023-04-30T15:51:24.987Z,32.34
2023-04-30T15:53:52.385Z,32.33
2023-04-30T15:56:20.336Z,32.17
2023-04-30T15:58:47.495Z,32.53
2023-04-30T16:01:14.795Z,32.68
2023-04-30T16:03:42.297Z,32.60
2023-04-30T16:06:09.808Z,32.47
2023-04-30T16:08:37.059Z,32.87
2023-04-30T16:11:04.161Z,32.76
2023-04-30T16:13:31.286Z,32.91
2023-04-30T16:15:58.631Z,33.22
2023-04-30T16:18:25.849Z,32.62
2023-04-30T16:20:53.446Z,32.84
2023-04-30T16:23:20.821Z,33.62
2023-04-30T16:25:48.294Z,32.42
2023-04-30T16:28:15.607Z,32.47
2023-04-30T16:30:42.789Z,32.55
2023-04-30T16:33:09.971Z,34.25
2023-04-30T16:35:37.158Z,34.51
2023-04-30T16:38:04.462Z,34.37
2023-04-30T16:40:31.643Z,34.64
2023-04-30T16:42:59.674Z,35.01
2023-04-30T16:45:27.223Z,35.06
2023-04-30T16:47:54.595Z,35.39
2023-04-30T16:50:24.168Z,35.62
2023-04-30T16:52:51.310Z,35.73
2023-04-30T16:55:18.443Z,35.85
2023-04-30T16:57:46.146Z,35.96
2023-04-30T17:00:14.303Z,36.35
2023-04-30T17:02:42.493Z,36.38
2023-04-30T17:05:09.855Z,36.71
2023-04-30T17:07:37.339Z,36.76
2023-04-30T17:10:05.108Z,36.98
2023-04-30T17:12:32.274Z,36.96
2023-04-30T17:14:59.407Z,37.30
2023-04-30T17:17:26.684Z,37.58
2023-04-30T17:19:53.990Z,38.08
2023-04-30T17:22:21.317Z,38.55
2023-04-30T17:24:48.519Z,38.74
2023-04-30T17:27:15.818Z,38.82
2023-04-30T17:29:43.012Z,39.10
2023-04-30T17:32:11.201Z,39.13
2023-04-30T17:34:38.432Z,39.01
2023-04-30T17:37:05.873Z,38.79
2023-04-30T17:39:33.063Z,38.50
2023-04-30T17:42:00.815Z,38.75
2023-04-30T17:44:28.264Z,38.86
2023-04-30T17:46:55.594Z,39.05
2023-04-30T17:49:23.026Z,39.43
2023-04-30T17:51:50.360Z,39.49
2023-04-30T17:54:17.604Z,39.66
2023-04-30T17:56:44.870Z,39.81
2023-04-30T17:59:12.530Z,39.94
2023-04-30T18:01:40.388Z,40.07
2023-04-30T18:04:08.087Z,40.27
2023-04-30T18:06:35.519Z,40.29
2023-04-30T18:09:04.138Z,40.34
2023-04-30T18:11:31.434Z,40.51
2023-04-30T18:13:58.722Z,40.37
2023-04-30T18:16:25.976Z,40.25
2023-04-30T18:18:53.116Z,40.13
2023-04-30T18:21:20.373Z,40.32
2023-04-30T18:23:48.015Z,40.22
2023-04-30T18:26:15.149Z,40.27
2023-04-30T18:28:42.441Z,40.35
2023-04-30T18:31:11.523Z,40.15
2023-04-30T18:33:38.777Z,40.08
2023-04-30T18:36:07.449Z,40.13
2023-04-30T18:38:34.898Z,40.07
2023-04-30T18:41:02.332Z,39.82
2023-04-30T18:43:29.462Z,39.96
2023-04-30T18:45:56.778Z,40.05
2023-04-30T18:48:24.149Z,40.10
2023-04-30T18:50:51.470Z,40.11
2023-04-30T18:53:18.752Z,40.14
2023-04-30T18:55:46.038Z,40.31
2023-04-30T18:58:13.358Z,40.29
2023-04-30T19:00:43.677Z,40.25
2023-04-30T19:03:10.990Z,40.23
2023-04-30T19:05:38.246Z,40.14
2023-04-30T19:08:05.438Z,40.30
2023-04-30T19:10:33.579Z,40.43
2023-04-30T19:13:00.807Z,40.46
2023-04-30T19:15:29.720Z,40.75
2023-04-30T19:17:57.817Z,40.64
2023-04-30T19:20:25.012Z,40.68
2023-04-30T19:22:52.336Z,40.70
2023-04-30T19:25:19.727Z,40.59
2023-04-30T19:27:46.903Z,40.53
2023-04-30T19:30:14.568Z,40.71
2023-04-30T19:32:41.799Z,40.68
2023-04-30T19:35:09.007Z,40.69
2023-04-30T19:37:36.706Z,40.61
2023-04-30T19:40:07.315Z,40.54
2023-04-30T19:42:34.432Z,40.76
2023-04-30T19:45:01.570Z,40.80
2023-04-30T19:47:28.738Z,40.91
2023-04-30T19:49:56.076Z,40.78
2023-04-30T19:52:23.369Z,40.70
2023-04-30T19:54:50.540Z,40.98
2023-04-30T19:57:17.750Z,40.88
2023-04-30T19:59:47.096Z,40.80
2023-04-30T20:02:14.586Z,41.02
2023-04-30T20:04:41.837Z,40.83
2023-04-30T20:07:09.083Z,40.73
2023-04-30T20:09:37.298Z,40.89
2023-04-30T20:12:04.827Z,40.95
2023-04-30T20:14:31.938Z,40.88
2023-04-30T20:16:59.227Z,40.89
2023-04-30T20:19:26.603Z,41.15
2023-04-30T20:21:54.061Z,38.16
2023-04-30T20:24:21.986Z,39.48
2023-04-30T20:26:49.223Z,38.63
2023-04-30T20:29:18.463Z,38.58
2023-04-30T20:31:46.587Z,39.34
2023-04-30T20:34:13.769Z,39.43
2023-04-30T20:36:40.934Z,39.61
2023-04-30T20:39:08.725Z,39.86
2023-04-30T20:41:36.146Z,40.07
2023-04-30T20:44:03.314Z,40.37
2023-04-30T20:46:32.292Z,40.43
2023-04-30T20:49:04.220Z,40.70
2023-04-30T20:51:31.420Z,40.78
2023-04-30T20:54:00.330Z,40.81
2023-04-30T20:56:27.693Z,40.96
2023-04-30T20:58:54.972Z,40.90
2023-04-30T21:01:22.531Z,41.21
2023-04-30T21:03:51.353Z,41.07
2023-04-30T21:06:18.908Z,41.22
2023-04-30T21:08:46.352Z,41.26
2023-04-30T21:11:14.207Z,41.04
2023-04-30T21:13:41.754Z,41.08
2023-04-30T21:16:08.957Z,41.21
2023-04-30T21:18:36.575Z,41.16
2023-04-30T21:21:04.666Z,41.34
2023-04-30T21:23:32.749Z,41.17
2023-04-30T21:25:59.909Z,41.19
2023-04-30T21:28:27.214Z,41.44
2023-04-30T21:30:54.417Z,41.31
2023-04-30T21:33:21.847Z,41.57
2023-04-30T21:35:49.203Z,41.44
2023-04-30T21:38:16.348Z,41.45
2023-04-30T21:40:43.535Z,41.66
2023-04-30T21:43:10.690Z,41.49
2023-04-30T21:45:37.800Z,41.55
2023-04-30T21:48:05.549Z,41.63
2023-04-30T21:50:32.787Z,41.45
2023-04-30T21:52:59.914Z,41.47
2023-04-30T21:55:27.353Z,41.69
2023-04-30T21:57:54.547Z,41.61
2023-04-30T22:00:21.655Z,41.68
2023-04-30T22:02:49.234Z,41.57
2023-04-30T22:05:17.100Z,41.75
2023-04-30T22:07:44.595Z,41.49
2023-04-30T22:10:12.030Z,41.55
2023-04-30T22:12:39.885Z,41.67
2023-04-30T22:15:07.328Z,41.72
2023-04-30T22:17:34.642Z,41.75
2023-04-30T22:20:01.773Z,41.85
2023-04-30T22:22:28.909Z,41.54
2023-04-30T22:24:56.501Z,41.74
2023-04-30T22:27:23.656Z,41.73
2023-04-30T22:29:50.842Z,41.78
2023-04-30T22:32:19.439Z,41.75
2023-04-30T22:34:46.615Z,41.78
2023-04-30T22:37:13.754Z,41.85
2023-04-30T22:39:41.193Z,41.67
2023-04-30T22:42:08.424Z,42.03
2023-04-30T22:44:35.662Z,42.20
2023-04-30T22:47:02.868Z,42.17
2023-04-30T22:49:31.727Z,42.02
2023-04-30T22:51:59.734Z,41.99
2023-04-30T22:54:26.883Z,41.54
2023-04-30T22:56:54.016Z,40.78
2023-04-30T22:59:21.329Z,40.57
2023-04-30T23:01:48.456Z,40.72
2023-04-30T23:04:15.620Z,40.93
2023-04-30T23:06:42.976Z,40.93
2023-04-30T23:09:10.323Z,41.14
2023-04-30T23:11:37.455Z,41.09
2023-04-30T23:14:04.793Z,40.96
2023-04-30T23:16:32.112Z,41.30
2023-04-30T23:18:59.296Z,41.03
2023-04-30T23:21:26.841Z,41.15
2023-04-30T23:23:54.026Z,41.08
2023-04-30T23:26:21.387Z,41.08
2023-04-30T23:28:48.609Z,41.23
2023-04-30T23:31:17.664Z,41.13
2023-04-30T23:33:44.807Z,41.06
2023-04-30T23:36:12.199Z,41.24
2023-04-30T23:38:39.327Z,41.12
2023-04-30T23:41:06.515Z,41.10
2023-04-30T23:43:33.634Z,41.32
2023-04-30T23:46:00.787Z,41.24
2023-04-30T23:48:28.005Z,41.37
2023-04-30T23:51:02.008Z,41.25
2023-04-30T23:53:29.196Z,41.14
2023-04-30T23:55:57.763Z,41.25
2023-04-30T23:58:25.194Z,41.27
